createdAt,value
2023-02-13T00:00:31.756Z,1.82
2023-02-13T00:02:58.606Z,1.82
2023-02-13T00:05:25.308Z,1.82
2023-02-13T00:07:51.967Z,1.83
2023-02-13T00:10:18.968Z,1.90
2023-02-13T00:12:45.775Z,1.89
2023-02-13T00:15:12.716Z,1.86
2023-02-13T00:17:39.491Z,1.89
2023-02-13T00:20:07.037Z,1.84
2023-02-13T00:22:38.179Z,1.86
2023-02-13T00:25:06.292Z,1.85
2023-02-13T00:27:33.034Z,1.83
2023-02-13T00:29:59.843Z,1.84
2023-02-13T00:32:26.639Z,1.85
2023-02-13T00:34:55.088Z,1.84
2023-02-13T00:37:23.184Z,1.83
2023-02-13T00:39:52.582Z,1.83
2023-02-13T00:42:20.594Z,1.82
2023-02-13T00:44:47.289Z,1.82
2023-02-13T00:47:14.929Z,1.81
2023-02-13T00:49:41.944Z,1.73
2023-02-13T00:52:08.641Z,1.73
2023-02-13T00:54:35.309Z,1.68
2023-02-13T00:57:02.201Z,1.67
2023-02-13T00:59:29.007Z,1.67
2023-02-13T01:01:55.933Z,1.67
2023-02-13T01:04:22.709Z,1.64
2023-02-13T01:06:49.372Z,1.64
2023-02-13T01:09:16.083Z,1.63
2023-02-13T01:11:43.084Z,1.64
2023-02-13T01:14:09.765Z,1.62
2023-02-13T01:16:36.526Z,1.61
2023-02-13T01:19:04.712Z,1.63
2023-02-13T01:21:31.426Z,1.58
2023-02-13T01:23:58.075Z,1.58
2023-02-13T01:26:25.108Z,1.54
2023-02-13T01:28:54.267Z,1.58
2023-02-13T01:31:21.427Z,1.53
2023-02-13T01:33:50.179Z,1.52
2023-02-13T01:36:16.852Z,1.51
2023-02-13T01:38:44.048Z,1.47
2023-02-13T01:41:11.171Z,1.37
2023-02-13T01:43:55.959Z,1.33
2023-02-13T01:46:30.766Z,1.30
2023-02-13T01:49:03.176Z,1.29
2023-02-13T01:51:32.006Z,1.29
2023-02-13T01:54:04.335Z,1.24
2023-02-13T01:56:37.680Z,1.20
2023-02-13T01:59:10.037Z,1.18
2023-02-13T02:01:37.298Z,1.13
2023-02-13T02:04:11.996Z,1.12
2023-02-13T02:06:46.897Z,1.12
2023-02-13T02:09:26.535Z,1.11
2023-02-13T02:12:00.218Z,1.12
2023-02-13T02:14:28.038Z,1.17
2023-02-13T02:16:57.082Z,1.11
2023-02-13T02:19:44.794Z,1.10
2023-02-13T02:22:42.668Z,1.07
2023-02-13T02:25:24.281Z,0.99
2023-02-13T02:28:35.619Z,0.90
2023-02-13T02:31:40.216Z,0.82
2023-02-13T02:34:25.924Z,0.77
2023-02-13T02:36:59.068Z,0.72
2023-02-13T02:39:54.025Z,0.69
2023-02-13T02:42:38.299Z,0.65
2023-02-13T02:45:28.891Z,0.61
2023-02-13T02:48:37.979Z,0.53
2023-02-13T02:51:39.037Z,0.46
2023-02-13T02:54:35.037Z,0.45
2023-02-13T02:57:11.689Z,0.39
2023-02-13T03:00:00.340Z,0.34
2023-02-13T03:02:48.827Z,0.28
2023-02-13T03:05:43.098Z,0.25
2023-02-13T03:08:10.573Z,0.20
2023-02-13T03:10:57.126Z,0.18
2023-02-13T03:13:38.331Z,0.19
2023-02-13T03:16:24.623Z,0.13
2023-02-13T03:19:14.735Z,0.05
2023-02-13T03:22:21.535Z,-0.06
2023-02-13T03:25:08.013Z,-0.05
2023-02-13T03:28:00.154Z,-0.05
2023-02-13T03:30:45.076Z,-0.11
2023-02-13T03:33:36.701Z,-0.13
2023-02-13T03:36:38.081Z,-0.28
2023-02-13T03:39:09.388Z,-0.32
2023-02-13T03:41:44.066Z,-0.34
2023-02-13T03:44:21.412Z,-0.31
2023-02-13T03:46:51.319Z,-0.27
2023-02-13T03:49:41.674Z,-0.24
2023-02-13T03:52:13.891Z,-0.22
2023-02-13T03:55:11.244Z,-0.18
2023-02-13T03:57:59.583Z,-0.16
2023-02-13T04:00:33.432Z,-0.19
2023-02-13T04:03:13.442Z,-0.27
2023-02-13T04:05:45.546Z,-0.47
2023-02-13T04:08:12.319Z,-0.60
2023-02-13T04:10:51.686Z,-0.69
2023-02-13T04:13:27.420Z,-0.70
2023-02-13T04:16:06.285Z,-0.71
2023-02-13T04:18:33.706Z,-0.82
2023-02-13T04:21:07.972Z,-0.84
2023-02-13T04:23:36.744Z,-0.83
2023-02-13T04:26:24.181Z,-0.86
2023-02-13T04:28:50.852Z,-0.82
2023-02-13T04:31:17.552Z,-0.75
2023-02-13T04:33:44.281Z,-0.71
2023-02-13T04:36:10.909Z,-0.70
2023-02-13T04:38:37.623Z,-0.67
2023-02-13T04:41:04.365Z,-0.72
2023-02-13T04:43:31.023Z,-0.70
2023-02-13T04:45:57.836Z,-0.64
2023-02-13T04:48:24.567Z,-0.54
2023-02-13T04:50:51.205Z,-0.64
2023-02-13T04:53:17.921Z,-0.69
2023-02-13T04:55:44.537Z,-0.76
2023-02-13T04:58:11.337Z,-0.76
2023-02-13T05:00:38.110Z,-0.84
2023-02-13T05:03:10.613Z,-0.90
2023-02-13T05:05:37.208Z,-0.91
2023-02-13T05:08:04.811Z,-0.96
2023-02-13T05:10:31.527Z,-0.86
2023-02-13T05:12:58.703Z,-0.88
2023-02-13T05:15:25.818Z,-0.90
2023-02-13T05:17:52.620Z,-0.91
2023-02-13T05:20:19.706Z,-0.93
2023-02-13T05:23:10.152Z,-1.03
2023-02-13T05:25:38.625Z,-1.04
2023-02-13T05:28:26.464Z,-1.19
2023-02-13T05:30:53.508Z,-1.21
2023-02-13T05:33:20.247Z,-1.27
2023-02-13T05:35:46.870Z,-1.24
2023-02-13T05:38:13.541Z,-1.14
2023-02-13T05:40:40.177Z,-1.13
2023-02-13T05:43:06.873Z,-1.02
2023-02-13T05:45:33.528Z,-0.98
2023-02-13T05:48:00.173Z,-1.05
2023-02-13T05:50:26.928Z,-1.05
2023-02-13T05:52:55.692Z,-1.05
2023-02-13T05:55:22.333Z,-1.06
2023-02-13T05:57:49.023Z,-0.86
2023-02-13T06:00:16.417Z,-0.88
2023-02-13T06:02:43.114Z,-0.84
2023-02-13T06:05:09.788Z,-0.92
2023-02-13T06:07:36.426Z,-1.02
2023-02-13T06:10:03.210Z,-1.17
2023-02-13T06:12:29.845Z,-1.22
2023-02-13T06:14:56.491Z,-1.25
2023-02-13T06:17:23.116Z,-1.20
2023-02-13T06:19:49.869Z,-1.15
2023-02-13T06:22:16.564Z,-1.16
2023-02-13T06:24:43.209Z,-1.22
2023-02-13T06:27:09.831Z,-1.29
2023-02-13T06:29:36.705Z,-1.28
2023-02-13T06:32:03.460Z,-1.31
2023-02-13T06:34:30.213Z,-1.33
2023-02-13T06:36:56.921Z,-1.36
2023-02-13T06:39:23.570Z,-1.27
2023-02-13T06:41:50.267Z,-1.20
2023-02-13T06:44:16.901Z,-1.16
2023-02-13T06:46:43.614Z,-1.11
2023-02-13T06:49:10.355Z,-1.01
2023-02-13T06:51:36.993Z,-0.90
2023-02-13T06:54:03.752Z,-1.03
2023-02-13T06:56:30.475Z,-1.07
2023-02-13T06:58:57.112Z,-1.10
2023-02-13T07:01:23.929Z,-1.10
2023-02-13T07:03:50.798Z,-1.01
2023-02-13T07:06:21.404Z,-0.92
2023-02-13T07:08:48.627Z,-0.91
2023-02-13T07:11:19.742Z,-0.95
2023-02-13T07:13:46.393Z,-0.96
2023-02-13T07:16:13.409Z,-1.01
2023-02-13T07:18:40.138Z,-1.14
2023-02-13T07:21:07.485Z,-0.98
2023-02-13T07:23:34.449Z,-1.02
2023-02-13T07:26:01.589Z,-1.03
2023-02-13T07:28:29.092Z,-0.94
2023-02-13T07:30:56.564Z,-0.91
2023-02-13T07:33:24.209Z,-0.93
2023-02-13T07:35:52.013Z,-1.07
2023-02-13T07:38:19.298Z,-1.03
2023-02-13T07:40:46.335Z,-0.98
2023-02-13T07:43:13.404Z,-0.91
2023-02-13T07:45:40.076Z,-0.93
2023-02-13T07:48:06.771Z,-0.96
2023-02-13T07:50:33.410Z,-0.98
2023-02-13T07:53:02.232Z,-1.07
2023-02-13T07:55:30.204Z,-1.09
2023-02-13T07:57:57.225Z,-1.07
2023-02-13T08:00:23.877Z,-1.12
2023-02-13T08:02:50.541Z,-1.13
2023-02-13T08:05:17.302Z,-1.11
2023-02-13T08:07:43.948Z,-1.09
2023-02-13T08:10:31.963Z,-1.00
2023-02-13T08:12:58.854Z,-1.04
2023-02-13T08:15:26.054Z,-1.16
2023-02-13T08:17:52.795Z,-1.02
2023-02-13T08:20:19.696Z,-1.07
2023-02-13T08:22:46.317Z,-1.11
2023-02-13T08:25:13.397Z,-1.08
2023-02-13T08:27:40.057Z,-1.09
2023-02-13T08:30:07.951Z,-1.11
2023-02-13T08:32:44.924Z,-0.98
2023-02-13T08:35:19.613Z,-0.93
2023-02-13T08:37:47.613Z,-0.90
2023-02-13T08:40:14.788Z,-0.87
2023-02-13T08:42:41.752Z,-0.90
2023-02-13T08:45:10.541Z,-0.89
2023-02-13T08:47:38.105Z,-0.90
2023-02-13T08:50:05.530Z,-0.86
2023-02-13T08:52:32.432Z,-0.84
2023-02-13T08:54:59.096Z,-0.96
2023-02-13T08:57:25.822Z,-0.97
2023-02-13T08:59:52.480Z,-0.92
2023-02-13T09:02:19.117Z,-0.81
2023-02-13T09:04:45.834Z,-0.76
2023-02-13T09:07:12.581Z,-0.75
2023-02-13T09:09:39.233Z,-0.82
2023-02-13T09:12:05.961Z,-0.71
2023-02-13T09:14:33.682Z,-0.60
2023-02-13T09:17:00.493Z,-0.67
2023-02-13T09:19:27.201Z,-0.62
2023-02-13T09:21:53.847Z,-0.61
2023-02-13T09:24:20.519Z,-0.59
2023-02-13T09:26:47.263Z,-0.60
2023-02-13T09:29:14.053Z,-0.51
2023-02-13T09:31:40.828Z,-0.54
2023-02-13T09:34:07.574Z,-0.55
2023-02-13T09:36:34.385Z,-0.56
2023-02-13T09:39:01.076Z,-0.65
2023-02-13T09:41:36.383Z,-0.74
2023-02-13T09:44:12.931Z,-0.73
2023-02-13T09:46:41.161Z,-0.66
2023-02-13T09:49:20.983Z,-0.63
2023-02-13T09:51:54.417Z,-0.58
2023-02-13T09:54:21.074Z,-0.57
2023-02-13T09:57:01.576Z,-0.48
2023-02-13T09:59:39.926Z,-0.46
2023-02-13T10:02:53.121Z,-0.45
2023-02-13T10:05:38.146Z,-0.39
2023-02-13T10:08:10.653Z,-0.49
2023-02-13T10:10:46.342Z,-0.50
2023-02-13T10:13:29.989Z,-0.45
2023-02-13T10:16:12.389Z,-0.37
2023-02-13T10:19:20.455Z,-0.44
2023-02-13T10:21:53.606Z,-0.35
2023-02-13T10:24:44.724Z,-0.20
2023-02-13T10:27:59.266Z,-0.31
2023-02-13T10:30:30.908Z,-0.31
2023-02-13T10:33:19.508Z,-0.47
2023-02-13T10:36:01.555Z,-0.43
2023-02-13T10:38:31.507Z,-0.31
2023-02-13T10:41:17.095Z,-0.37
2023-02-13T10:43:52.798Z,-0.39
2023-02-13T10:46:30.773Z,-0.49
2023-02-13T10:49:16.290Z,-0.42
2023-02-13T10:51:55.950Z,-0.55
2023-02-13T10:54:40.401Z,-0.47
2023-02-13T10:57:10.125Z,-0.38
2023-02-13T10:59:45.810Z,-0.42
2023-02-13T11:02:25.993Z,-0.42
2023-02-13T11:04:59.318Z,-0.42
2023-02-13T11:07:27.144Z,-0.36
2023-02-13T11:10:01.568Z,-0.33
2023-02-13T11:12:31.374Z,-0.26
2023-02-13T11:15:06.597Z,-0.48
2023-02-13T11:17:37.108Z,-0.49
2023-02-13T11:20:36.727Z,-0.41
2023-02-13T11:23:32.183Z,-0.41
2023-02-13T11:26:04.928Z,-0.19
2023-02-13T11:28:37.171Z,-0.21
2023-02-13T11:31:27.807Z,-0.23
2023-02-13T11:33:55.365Z,-0.25
2023-02-13T11:36:33.032Z,-0.17
2023-02-13T11:39:02.984Z,-0.10
2023-02-13T11:41:31.322Z,-0.16
2023-02-13T11:44:02.385Z,-0.17
2023-02-13T11:46:43.083Z,-0.12
2023-02-13T11:49:20.473Z,-0.13
2023-02-13T11:51:55.228Z,-0.05
2023-02-13T11:54:43.095Z,-0.10
2023-02-13T11:57:23.630Z,-0.11
2023-02-13T11:59:52.521Z,-0.13
2023-02-13T12:02:29.066Z,-0.08
2023-02-13T12:05:16.820Z,0.02
2023-02-13T12:07:45.396Z,0.19
2023-02-13T12:10:37.873Z,0.10
2023-02-13T12:13:15.602Z,0.13
2023-02-13T12:15:44.470Z,0.23
2023-02-13T12:18:32.269Z,0.23
2023-02-13T12:21:21.273Z,0.15
2023-02-13T12:24:42.132Z,0.16
2023-02-13T12:27:42.805Z,0.17
2023-02-13T12:30:12.149Z,0.12
2023-02-13T12:32:57.413Z,0.14
2023-02-13T12:35:34.246Z,0.10
2023-02-13T12:38:05.171Z,0.12
2023-02-13T12:40:58.345Z,0.11
2023-02-13T12:43:34.414Z,0.07
2023-02-13T12:46:39.944Z,0.07
2023-02-13T12:49:49.939Z,0.17
2023-02-13T12:52:55.155Z,0.11
2023-02-13T12:55:27.985Z,0.13
2023-02-13T12:58:20.271Z,0.05
2023-02-13T13:01:08.803Z,0.18
2023-02-13T13:03:59.778Z,0.23
2023-02-13T13:07:17.433Z,0.29
2023-02-13T13:09:59.710Z,0.18
2023-02-13T13:12:52.608Z,0.08
2023-02-13T13:15:34.674Z,0.11
2023-02-13T13:18:16.362Z,0.09
2023-02-13T13:20:59.040Z,0.19
2023-02-13T13:23:29.897Z,0.29
2023-02-13T13:26:32.087Z,0.24
2023-02-13T13:29:01.405Z,0.21
2023-02-13T13:31:28.855Z,0.23
2023-02-13T13:34:01.817Z,0.13
2023-02-13T13:36:45.610Z,0.30
2023-02-13T13:39:42.672Z,0.47
2023-02-13T13:42:20.675Z,0.35
2023-02-13T13:45:00.871Z,0.27
2023-02-13T13:48:12.059Z,0.25
2023-02-13T13:50:41.918Z,0.26
2023-02-13T13:53:10.266Z,0.29
2023-02-13T13:56:02.332Z,0.40
2023-02-13T13:58:42.982Z,0.44
2023-02-13T14:01:42.181Z,0.40
2023-02-13T14:04:33.518Z,0.31
2023-02-13T14:07:00.098Z,0.31
2023-02-13T14:09:26.697Z,0.36
2023-02-13T14:11:58.501Z,0.34
2023-02-13T14:14:28.192Z,0.35
2023-02-13T14:16:57.357Z,0.34
2023-02-13T14:19:33.953Z,0.35
2023-02-13T14:22:18.949Z,0.25
2023-02-13T14:24:53.787Z,0.23
2023-02-13T14:27:34.565Z,0.32
2023-02-13T14:30:01.939Z,0.37
2023-02-13T14:32:34.022Z,0.28
2023-02-13T14:35:05.231Z,0.10
2023-02-13T14:37:36.815Z,0.09
2023-02-13T14:40:15.752Z,0.06
2023-02-13T14:42:48.212Z,0.05
2023-02-13T14:45:20.811Z,0.11
2023-02-13T14:47:56.806Z,0.03
2023-02-13T14:50:45.891Z,0.04
2023-02-13T14:53:24.436Z,0.00
2023-02-13T14:55:58.043Z,0.04
2023-02-13T14:58:30.914Z,0.09
2023-02-13T15:01:05.740Z,0.16
2023-02-13T15:03:49.265Z,0.18
2023-02-13T15:06:39.476Z,0.14
2023-02-13T15:09:27.697Z,0.11
2023-02-13T15:11:54.368Z,0.11
2023-02-13T15:14:33.602Z,0.14
2023-02-13T15:17:20.093Z,0.09
2023-02-13T15:19:53.639Z,0.17
2023-02-13T15:22:27.798Z,0.22
2023-02-13T15:24:54.705Z,0.21
2023-02-13T15:27:26.982Z,0.24
2023-02-13T15:30:01.161Z,0.07
2023-02-13T15:32:34.551Z,-0.03
2023-02-13T15:35:01.330Z,-0.09
2023-02-13T15:37:30.389Z,-0.07
2023-02-13T15:40:15.280Z,-0.03
2023-02-13T15:42:41.990Z,0.00
2023-02-13T15:45:16.520Z,0.00
2023-02-13T15:47:45.703Z,0.02
2023-02-13T15:50:21.881Z,-0.08
2023-02-13T15:52:48.753Z,-0.10
2023-02-13T15:55:27.828Z,-0.09
2023-02-13T15:57:57.441Z,-0.14
2023-02-13T16:00:36.222Z,-0.12
2023-02-13T16:03:06.166Z,-0.17
2023-02-13T16:05:41.392Z,-0.16
2023-02-13T16:08:29.228Z,-0.15
2023-02-13T16:11:24.131Z,-0.11
2023-02-13T16:14:08.580Z,-0.09
2023-02-13T16:16:53.153Z,-0.21
2023-02-13T16:19:41.116Z,-0.26
2023-02-13T16:22:17.104Z,-0.32
2023-02-13T16:24:53.957Z,-0.32
2023-02-13T16:27:25.918Z,-0.33
2023-02-13T16:30:00.880Z,-0.35
2023-02-13T16:32:41.260Z,-0.33
2023-02-13T16:35:31.066Z,-0.33
2023-02-13T16:38:03.260Z,-0.33
2023-02-13T16:40:40.696Z,-0.39
2023-02-13T16:43:33.100Z,-0.33
2023-02-13T16:46:33.555Z,-0.33
2023-02-13T16:49:09.368Z,-0.30
2023-02-13T16:51:58.729Z,-0.29
2023-02-13T16:54:47.921Z,-0.32
2023-02-13T16:57:14.526Z,-0.27
2023-02-13T17:00:01.398Z,-0.23
2023-02-13T17:02:35.056Z,-0.30
2023-02-13T17:05:07.557Z,-0.28
2023-02-13T17:07:43.737Z,-0.25
2023-02-13T17:10:36.224Z,-0.32
2023-02-13T17:13:08.824Z,-0.36
2023-02-13T17:15:35.503Z,-0.37
2023-02-13T17:18:02.119Z,-0.39
2023-02-13T17:20:31.865Z,-0.37
2023-02-13T17:23:00.958Z,-0.36
2023-02-13T17:25:38.040Z,-0.43
2023-02-13T17:28:14.363Z,-0.42
2023-02-13T17:30:41.818Z,-0.49
2023-02-13T17:33:19.406Z,-0.50
2023-02-13T17:35:47.267Z,-0.48
2023-02-13T17:38:14.231Z,-0.42
2023-02-13T17:40:42.581Z,-0.41
2023-02-13T17:43:11.648Z,-0.50
2023-02-13T17:45:38.839Z,-0.49
2023-02-13T17:48:05.874Z,-0.48
2023-02-13T17:50:33.774Z,-0.50
2023-02-13T17:53:06.725Z,-0.49
2023-02-13T17:55:34.806Z,-0.46
2023-02-13T17:58:02.121Z,-0.43
2023-02-13T18:00:32.377Z,-0.44
2023-02-13T18:03:00.495Z,-0.52
2023-02-13T18:05:28.477Z,-0.55
2023-02-13T18:07:55.338Z,-0.53
2023-02-13T18:10:27.662Z,-0.61
2023-02-13T18:12:55.413Z,-0.58
2023-02-13T18:15:23.046Z,-0.61
2023-02-13T18:17:50.293Z,-0.60
2023-02-13T18:20:20.670Z,-0.58
2023-02-13T18:22:50.572Z,-0.56
2023-02-13T18:25:18.883Z,-0.58
2023-02-13T18:27:45.815Z,-0.55
2023-02-13T18:30:15.593Z,-0.49
2023-02-13T18:32:42.353Z,-0.51
2023-02-13T18:35:09.030Z,-0.49
2023-02-13T18:37:35.881Z,-0.43
2023-02-13T18:40:02.616Z,-0.41
2023-02-13T18:42:29.213Z,-0.47
2023-02-13T18:44:55.931Z,-0.54
2023-02-13T18:47:22.566Z,-0.54
2023-02-13T18:49:49.863Z,-0.57
2023-02-13T18:52:16.555Z,-0.55
2023-02-13T18:54:43.234Z,-0.60
2023-02-13T18:57:09.938Z,-0.61
2023-02-13T18:59:36.642Z,-0.60
2023-02-13T19:02:04.332Z,-0.63
2023-02-13T19:04:31.745Z,-0.61
2023-02-13T19:06:58.432Z,-0.58
2023-02-13T19:09:25.105Z,-0.60
2023-02-13T19:11:51.807Z,-0.58
2023-02-13T19:14:18.559Z,-0.61
2023-02-13T19:16:45.350Z,-0.63
2023-02-13T19:19:12.098Z,-0.62
2023-02-13T19:21:39.395Z,-0.60
2023-02-13T19:24:08.974Z,-0.60
2023-02-13T19:26:36.566Z,-0.61
2023-02-13T19:29:04.279Z,-0.65
2023-02-13T19:31:32.729Z,-0.63
2023-02-13T19:34:00.679Z,-0.68
2023-02-13T19:36:29.752Z,-0.65
2023-02-13T19:39:08.005Z,-0.64
2023-02-13T19:41:35.932Z,-0.48
2023-02-13T19:44:02.921Z,-0.50
2023-02-13T19:46:31.945Z,-0.65
2023-02-13T19:48:59.496Z,-0.74
2023-02-13T19:51:28.407Z,-0.71
2023-02-13T19:54:06.424Z,-0.71
2023-02-13T19:56:35.845Z,-0.69
2023-02-13T19:59:02.758Z,-0.71
2023-02-13T20:01:30.063Z,-0.75
2023-02-13T20:03:57.419Z,-0.66
2023-02-13T20:06:32.470Z,-0.67
2023-02-13T20:09:01.689Z,-0.67
2023-02-13T20:11:28.940Z,-0.64
2023-02-13T20:13:57.392Z,-0.71
2023-02-13T20:16:24.184Z,-0.72
2023-02-13T20:18:50.887Z,-0.75
2023-02-13T20:21:18.708Z,-0.75
2023-02-13T20:23:50.810Z,-0.74
2023-02-13T20:26:17.967Z,-0.72
2023-02-13T20:28:46.709Z,-0.82
2023-02-13T20:31:19.477Z,-0.78
2023-02-13T20:33:47.021Z,-0.78
2023-02-13T20:36:19.183Z,-0.75
2023-02-13T20:38:46.217Z,-0.73
2023-02-13T20:41:15.933Z,-0.78
2023-02-13T20:43:42.892Z,-0.87
2023-02-13T20:46:10.518Z,-0.86
2023-02-13T20:48:39.504Z,-0.84
2023-02-13T20:51:09.662Z,-0.76
2023-02-13T20:53:36.373Z,-0.81
2023-02-13T20:56:12.498Z,-0.84
2023-02-13T20:58:40.060Z,-0.84
2023-02-13T21:01:17.961Z,-0.87
2023-02-13T21:03:45.529Z,-0.81
2023-02-13T21:06:12.241Z,-0.94
2023-02-13T21:08:39.416Z,-1.05
2023-02-13T21:11:07.825Z,-1.05
2023-02-13T21:13:35.408Z,-1.05
2023-02-13T21:16:07.806Z,-1.05
2023-02-13T21:18:34.849Z,-1.01
2023-02-13T21:21:01.872Z,-1.05
2023-02-13T21:23:28.637Z,-1.08
2023-02-13T21:25:55.332Z,-1.10
2023-02-13T21:28:22.420Z,-1.09
2023-02-13T21:30:49.980Z,-1.16
2023-02-13T21:33:17.715Z,-1.18
2023-02-13T21:35:44.506Z,-1.13
2023-02-13T21:38:11.552Z,-1.15
2023-02-13T21:40:38.538Z,-1.19
2023-02-13T21:43:06.836Z,-1.19
2023-02-13T21:45:33.791Z,-1.17
2023-02-13T21:48:00.497Z,-1.23
2023-02-13T21:50:27.387Z,-1.32
2023-02-13T21:52:54.068Z,-1.34
2023-02-13T21:55:20.826Z,-1.32
2023-02-13T21:57:47.717Z,-1.32
2023-02-13T22:00:15.684Z,-1.31
2023-02-13T22:02:42.493Z,-1.33
2023-02-13T22:05:09.267Z,-1.32
2023-02-13T22:07:55.873Z,-1.25
2023-02-13T22:10:22.673Z,-1.22
2023-02-13T22:12:53.261Z,-1.21
2023-02-13T22:15:20.609Z,-1.20
2023-02-13T22:17:47.430Z,-1.20
2023-02-13T22:20:14.362Z,-1.22
2023-02-13T22:22:41.137Z,-1.28
2023-02-13T22:25:08.839Z,-1.26
2023-02-13T22:27:36.392Z,-1.23
2023-02-13T22:30:03.950Z,-1.23
2023-02-13T22:32:31.138Z,-1.26
2023-02-13T22:34:57.896Z,-1.26
2023-02-13T22:37:24.616Z,-1.21
2023-02-13T22:39:51.374Z,-1.18
2023-02-13T22:42:18.061Z,-1.11
2023-02-13T22:44:44.812Z,-1.07
2023-02-13T22:47:11.510Z,-1.06
2023-02-13T22:49:38.632Z,-1.13
2023-02-13T22:52:06.354Z,-1.16
2023-02-13T22:54:33.073Z,-1.18
2023-02-13T22:56:59.743Z,-1.21
2023-02-13T22:59:26.438Z,-1.17
2023-02-13T23:01:53.318Z,-1.01
2023-02-13T23:04:20.084Z,-0.94
2023-02-13T23:06:46.906Z,-1.01
2023-02-13T23:09:13.628Z,-0.98
2023-02-13T23:11:58.858Z,-0.87
2023-02-13T23:14:25.634Z,-0.84
2023-02-13T23:17:10.819Z,-0.88
2023-02-13T23:19:37.591Z,-0.88
2023-02-13T23:22:04.541Z,-0.95
2023-02-13T23:24:31.366Z,-0.97
2023-02-13T23:26:59.147Z,-0.90
2023-02-13T23:29:26.311Z,-0.91
2023-02-13T23:31:53.196Z,-0.93
2023-02-13T23:34:20.046Z,-0.86
2023-02-13T23:36:46.852Z,-0.82
2023-02-13T23:39:13.878Z,-0.82
2023-02-13T23:41:40.586Z,-0.83
2023-02-13T23:44:07.244Z,-0.77
2023-02-13T23:46:34.073Z,-0.81
2023-02-13T23:49:00.699Z,-0.79
2023-02-13T23:51:27.401Z,-0.89
2023-02-13T23:53:56.258Z,-0.92
2023-02-13T23:56:24.837Z,-0.91
2023-02-13T23:58:51.602Z,-1.00
